Time;durP1;ratioP1;P1;durP2;ratioP2;P2;SDS_P1;SDS_P2;PMS_P1;PMS_P2;Temp;Humidity;BMP_temperature;BMP_pressure;BME280_temperature;BME280_humidity;BME280_pressure;Samples;Min_cycle;Max_cycle;Signal;HPM_P1;HPM_P2
2021/07/23 00:01:31;;;;;;;77.72;58.97;;;;;;;;;;4298499;33;20443;-85
2021/07/23 00:04:00;;;;;;;98.30;69.35;;;;;;;;;;4301565;33;20112;-85
2021/07/23 00:06:32;;;;;;;93.93;67.80;;;;;;;;;;4288402;33;20151;-86
2021/07/23 00:09:01;;;;;;;92.65;67.45;;;;;;;;;;4296689;33;20135;-85
2021/07/23 00:11:30;;;;;;;77.72;66.82;;;;;;;;;;4307240;33;20052;-85
2021/07/23 00:13:59;;;;;;;77.35;68.35;;;;;;;;;;4284864;33;20071;-85
2021/07/23 00:16:28;;;;;;;72.43;64.40;;;;;;;;;;4287717;33;20119;-86
2021/07/23 00:18:56;;;;;;;69.53;61.90;;;;;;;;;;4301041;33;20090;-85
2021/07/23 00:21:25;;;;;;;68.28;60.85;;;;;;;;;;4303369;33;20077;-85
2021/07/23 00:23:54;;;;;;;93.35;67.93;;;;;;;;;;4292613;33;20083;-85
2021/07/23 00:26:22;;;;;;;71.72;59.75;;;;;;;;;;4308008;33;20407;-85
2021/07/23 00:28:59;;;;;;;84.32;59.88;;;;;;;;;;4305467;33;20071;-85
2021/07/23 00:31:29;;;;;;;76.47;60.12;;;;;;;;;;4304032;33;20048;-86
2021/07/23 00:33:57;;;;;;;75.25;59.30;;;;;;;;;;4299232;33;20167;-85
2021/07/23 00:36:29;;;;;;;84.07;59.58;;;;;;;;;;4295090;33;20061;-85
2021/07/23 00:38:58;;;;;;;68.65;58.90;;;;;;;;;;4301006;33;20162;-85
2021/07/23 00:41:26;;;;;;;77.53;58.80;;;;;;;;;;4305363;33;20052;-85
2021/07/23 00:43:55;;;;;;;83.70;59.10;;;;;;;;;;4299543;33;20136;-85
2021/07/23 00:46:27;;;;;;;81.20;57.50;;;;;;;;;;4302270;33;20364;-85
2021/07/23 00:48:57;;;;;;;78.40;62.80;;;;;;;;;;4304200;33;20486;-85
2021/07/23 00:51:28;;;;;;;67.68;55.08;;;;;;;;;;4298999;33;20092;-85
2021/07/23 00:53:58;;;;;;;63.53;56.17;;;;;;;;;;4304110;33;20144;-85
2021/07/23 00:56:27;;;;;;;72.65;59.67;;;;;;;;;;4306745;33;20138;-85
2021/07/23 00:58:55;;;;;;;66.50;58.95;;;;;;;;;;4298095;33;20762;-86
2021/07/23 01:01:25;;;;;;;69.50;61.92;;;;;;;;;;4305658;33;20067;-85
2021/07/23 01:04:03;;;;;;;68.45;55.83;;;;;;;;;;4306732;33;20470;-85
2021/07/23 01:06:35;;;;;;;77.72;57.90;;;;;;;;;;4299080;33;20134;-85
2021/07/23 01:09:05;;;;;;;76.32;57.92;;;;;;;;;;4302653;33;20454;-85
2021/07/23 01:11:35;;;;;;;76.95;58.25;;;;;;;;;;4304770;33;20099;-85
2021/07/23 01:14:07;;;;;;;74.93;58.20;;;;;;;;;;4305609;33;20408;-85
2021/07/23 01:16:37;;;;;;;72.60;58.40;;;;;;;;;;4307665;33;20200;-85
2021/07/23 01:19:06;;;;;;;86.28;67.37;;;;;;;;;;4300949;33;20056;-85
2021/07/23 01:21:35;;;;;;;89.82;65.35;;;;;;;;;;4303680;33;20056;-85
2021/07/23 01:24:06;;;;;;;84.87;64.78;;;;;;;;;;4300077;33;20592;-85
2021/07/23 01:26:37;;;;;;;90.45;64.82;;;;;;;;;;4295917;33;20049;-86
2021/07/23 01:29:06;;;;;;;72.05;60.12;;;;;;;;;;4287659;33;20057;-85
2021/07/23 01:31:35;;;;;;;69.65;59.08;;;;;;;;;;4297746;33;20099;-86
2021/07/23 01:34:04;;;;;;;68.90;58.97;;;;;;;;;;4300601;33;20057;-84
2021/07/23 01:36:33;;;;;;;65.62;58.35;;;;;;;;;;4302180;33;20041;-84
2021/07/23 01:39:02;;;;;;;69.87;58.58;;;;;;;;;;4293406;33;20163;-85
2021/07/23 01:41:33;;;;;;;88.35;65.62;;;;;;;;;;4302815;33;20071;-85
2021/07/23 01:44:02;;;;;;;90.68;63.80;;;;;;;;;;4301110;33;20049;-85
2021/07/23 01:46:30;;;;;;;82.97;61.17;;;;;;;;;;4305137;33;20064;-85
2021/07/23 01:49:00;;;;;;;65.95;55.28;;;;;;;;;;4287676;33;20072;-85
2021/07/23 01:51:29;;;;;;;72.53;55.85;;;;;;;;;;4305300;33;20418;-85
2021/07/23 01:53:57;;;;;;;72.28;55.50;;;;;;;;;;4305147;33;20045;-85
2021/07/23 01:56:26;;;;;;;70.65;55.20;;;;;;;;;;4307101;33;20105;-85
2021/07/23 01:58:55;;;;;;;77.55;55.63;;;;;;;;;;4300426;33;20064;-85
2021/07/23 02:01:25;;;;;;;79.47;55.88;;;;;;;;;;4303716;33;20064;-86
2021/07/23 02:03:54;;;;;;;72.62;55.88;;;;;;;;;;4295892;33;20597;-85
2021/07/23 02:06:23;;;;;;;71.60;63.90;;;;;;;;;;4298661;33;20053;-85
2021/07/23 02:08:53;;;;;;;73.15;64.87;;;;;;;;;;4301339;33;20049;-85
2021/07/23 02:11:22;;;;;;;67.53;59.92;;;;;;;;;;4305818;33;20103;-85
2021/07/23 02:13:51;;;;;;;64.20;57.55;;;;;;;;;;4303013;33;20079;-85
2021/07/23 02:16:20;;;;;;;68.90;59.75;;;;;;;;;;4303906;33;20037;-85
2021/07/23 02:18:50;;;;;;;75.57;62.08;;;;;;;;;;4304094;33;20067;-85
2021/07/23 02:21:24;;;;;;;80.18;58.17;;;;;;;;;;4301952;33;20071;-85
2021/07/23 02:23:52;;;;;;;80.75;59.13;;;;;;;;;;4290204;33;20090;-85
2021/07/23 02:26:22;;;;;;;90.28;65.03;;;;;;;;;;4307115;33;20049;-85
2021/07/23 02:28:51;;;;;;;94.32;65.07;;;;;;;;;;4306335;33;20061;-85
2021/07/23 02:31:21;;;;;;;84.32;64.25;;;;;;;;;;4304366;33;20071;-85
2021/07/23 02:33:53;;;;;;;84.25;64.30;;;;;;;;;;4296065;33;20033;-85
2021/07/23 02:36:25;;;;;;;68.10;57.75;;;;;;;;;;4297119;33;20108;-86
2021/07/23 02:38:55;;;;;;;76.53;58.70;;;;;;;;;;4300515;33;20546;-85
2021/07/23 02:41:24;;;;;;;71.25;57.67;;;;;;;;;;4306891;33;20103;-86
2021/07/23 02:43:55;;;;;;;84.75;64.75;;;;;;;;;;4299205;33;20088;-86
2021/07/23 02:46:23;;;;;;;64.20;57.47;;;;;;;;;;4299793;33;20291;-85
2021/07/23 02:48:52;;;;;;;63.63;57.08;;;;;;;;;;4293379;33;20057;-85
2021/07/23 02:51:22;;;;;;;88.75;67.95;;;;;;;;;;4307184;33;20056;-85
2021/07/23 02:53:52;;;;;;;82.18;69.00;;;;;;;;;;4304445;33;20424;-85
2021/07/23 02:56:21;;;;;;;79.15;68.50;;;;;;;;;;4291452;33;20095;-85
2021/07/23 02:58:50;;;;;;;79.25;60.03;;;;;;;;;;4298689;33;20135;-85
2021/07/23 03:01:19;;;;;;;78.22;58.87;;;;;;;;;;4300002;33;20163;-85
2021/07/23 03:03:47;;;;;;;81.63;58.13;;;;;;;;;;4304692;33;20416;-86
2021/07/23 03:06:18;;;;;;;76.30;60.65;;;;;;;;;;4307781;33;20044;-85
2021/07/23 03:08:47;;;;;;;78.10;58.15;;;;;;;;;;4302339;33;20257;-85
2021/07/23 04:29:30;;;;;;;73.12;58.28;;;;;;;;;;4311462;33;20372;-84
2021/07/23 04:32:07;;;;;;;72.50;59.25;;;;;;;;;;4322018;33;20143;-84
2021/07/23 04:34:37;;;;;;;77.35;59.80;;;;;;;;;;4319714;33;20043;-84
2021/07/23 04:37:06;;;;;;;90.35;68.25;;;;;;;;;;4317185;33;20107;-84
2021/07/23 04:39:36;;;;;;;85.55;66.68;;;;;;;;;;4323264;33;20049;-83
2021/07/23 04:42:05;;;;;;;66.53;59.45;;;;;;;;;;4321816;33;20071;-84
2021/07/23 04:44:34;;;;;;;83.93;73.80;;;;;;;;;;4317257;33;20052;-83
2021/07/23 04:47:03;;;;;;;81.40;71.35;;;;;;;;;;4320868;33;20116;-85
2021/07/23 04:49:32;;;;;;;81.57;65.97;;;;;;;;;;4319091;33;20149;-83
2021/07/23 04:52:02;;;;;;;72.93;64.15;;;;;;;;;;4313618;33;20853;-84
2021/07/23 04:54:34;;;;;;;70.40;55.63;;;;;;;;;;4319165;33;20064;-84
2021/07/23 04:57:05;;;;;;;75.53;56.90;;;;;;;;;;4316227;33;20045;-84
2021/07/23 04:59:33;;;;;;;88.32;63.00;;;;;;;;;;4320643;33;20060;-83
2021/07/23 05:02:02;;;;;;;88.62;62.65;;;;;;;;;;4306117;33;20084;-84
2021/07/23 05:04:31;;;;;;;87.93;62.00;;;;;;;;;;4303041;33;20493;-84
2021/07/23 05:07:00;;;;;;;85.28;65.25;;;;;;;;;;4318187;33;20619;-84
2021/07/23 05:09:29;;;;;;;77.03;65.55;;;;;;;;;;4322862;33;20082;-84
2021/07/23 05:11:58;;;;;;;80.10;64.70;;;;;;;;;;4320640;33;20090;-83
2021/07/23 05:14:28;;;;;;;88.28;65.93;;;;;;;;;;4308633;33;20494;-84
2021/07/23 05:16:56;;;;;;;85.60;65.53;;;;;;;;;;4320006;33;20048;-84
2021/07/23 05:19:25;;;;;;;70.72;63.25;;;;;;;;;;4318806;33;20036;-84
2021/07/23 05:21:54;;;;;;;66.50;59.15;;;;;;;;;;4319647;33;20048;-84
2021/07/23 05:24:22;;;;;;;67.53;60.58;;;;;;;;;;4315849;33;20083;-84
2021/07/23 05:26:51;;;;;;;66.45;59.15;;;;;;;;;;4315340;33;20067;-84
2021/07/23 05:29:19;;;;;;;64.60;48.80;;;;;;;;;;4310597;33;20095;-84
2021/07/23 05:31:47;;;;;;;63.87;48.08;;;;;;;;;;4296927;33;20087;-84
2021/07/23 05:34:16;;;;;;;70.95;53.87;;;;;;;;;;4303323;33;20087;-83
2021/07/23 05:36:45;;;;;;;68.65;51.08;;;;;;;;;;4307460;33;20091;-84
2021/07/23 05:39:13;;;;;;;60.83;45.50;;;;;;;;;;4323085;33;20045;-84
2021/07/23 05:41:42;;;;;;;69.70;51.05;;;;;;;;;;4316079;33;20118;-84
2021/07/23 05:44:10;;;;;;;77.60;53.22;;;;;;;;;;4320719;33;20115;-84
2021/07/23 05:46:39;;;;;;;82.03;55.50;;;;;;;;;;4319051;33;20522;-84
2021/07/23 05:49:08;;;;;;;70.68;48.97;;;;;;;;;;4304444;33;20064;-84
2021/07/23 05:51:36;;;;;;;66.20;48.05;;;;;;;;;;4317585;33;20033;-84
2021/07/23 05:54:04;;;;;;;61.55;45.72;;;;;;;;;;4320389;33;20161;-84
2021/07/23 05:56:33;;;;;;;56.33;44.95;;;;;;;;;;4316328;33;20052;-84
2021/07/23 05:59:02;;;;;;;69.93;46.03;;;;;;;;;;4320247;33;20075;-84
2021/07/23 06:01:30;;;;;;;64.72;47.35;;;;;;;;;;4317126;33;20048;-84
2021/07/23 06:03:59;;;;;;;64.47;50.75;;;;;;;;;;4312390;33;20041;-84
2021/07/23 06:06:28;;;;;;;71.18;50.20;;;;;;;;;;4295564;33;20049;-84
2021/07/23 06:09:07;;;;;;;75.62;52.42;;;;;;;;;;4311707;33;20056;-84
2021/07/23 06:11:38;;;;;;;71.10;53.85;;;;;;;;;;4312623;33;20108;-83
2021/07/23 06:14:07;;;;;;;75.03;53.67;;;;;;;;;;4317994;33;20044;-84
2021/07/23 06:16:35;;;;;;;74.53;56.42;;;;;;;;;;4315579;33;20171;-84
2021/07/23 06:19:04;;;;;;;71.50;55.95;;;;;;;;;;4315360;33;20048;-85
2021/07/23 06:21:33;;;;;;;66.32;55.22;;;;;;;;;;4312946;33;20111;-84
2021/07/23 06:24:01;;;;;;;64.90;55.80;;;;;;;;;;4314055;33;20100;-84
2021/07/23 06:26:30;;;;;;;71.80;56.95;;;;;;;;;;4314194;33;20120;-84
2021/07/23 06:28:58;;;;;;;74.28;59.28;;;;;;;;;;4314220;33;20053;-84
2021/07/23 06:31:27;;;;;;;91.12;66.78;;;;;;;;;;4315414;33;20041;-84
2021/07/23 06:33:55;;;;;;;85.05;62.85;;;;;;;;;;4313992;33;20373;-85
2021/07/23 06:36:24;;;;;;;92.10;64.05;;;;;;;;;;4316873;33;20129;-84
2021/07/23 06:38:53;;;;;;;71.80;64.10;;;;;;;;;;4315650;33;20154;-85
2021/07/23 06:41:21;;;;;;;65.72;58.90;;;;;;;;;;4311966;33;20213;-85
2021/07/23 06:43:50;;;;;;;66.05;59.08;;;;;;;;;;4312488;33;20095;-84
2021/07/23 06:46:21;;;;;;;70.50;59.83;;;;;;;;;;4311232;33;20415;-84
2021/07/23 06:48:50;;;;;;;74.80;65.28;;;;;;;;;;4316192;33;20103;-84
2021/07/23 06:51:19;;;;;;;72.55;56.08;;;;;;;;;;4296880;33;20044;-84
2021/07/23 06:53:47;;;;;;;70.00;57.20;;;;;;;;;;4313016;33;20111;-84
2021/07/23 06:56:16;;;;;;;80.18;58.55;;;;;;;;;;4313537;33;20278;-84
2021/07/23 06:58:44;;;;;;;82.20;58.20;;;;;;;;;;4315411;33;20096;-84
2021/07/23 07:01:12;;;;;;;94.35;66.28;;;;;;;;;;4308908;33;20110;-84
2021/07/23 07:03:41;;;;;;;91.10;67.62;;;;;;;;;;4316538;33;20052;-84
2021/07/23 07:06:11;;;;;;;91.18;68.22;;;;;;;;;;4312011;33;20048;-84
2021/07/23 07:08:39;;;;;;;98.57;70.10;;;;;;;;;;4304360;33;20052;-84
2021/07/23 07:11:08;;;;;;;94.68;73.47;;;;;;;;;;4315503;33;20074;-84
2021/07/23 07:13:36;;;;;;;102.10;75.55;;;;;;;;;;4311493;33;20136;-85
2021/07/23 07:16:11;;;;;;;102.38;75.20;;;;;;;;;;4306828;33;20099;-83
2021/07/23 07:18:41;;;;;;;80.45;70.72;;;;;;;;;;4306072;33;20123;-84
2021/07/23 07:21:12;;;;;;;80.28;71.65;;;;;;;;;;4319065;33;20175;-84
2021/07/23 07:23:41;;;;;;;82.72;70.75;;;;;;;;;;4317276;33;21098;-85
2021/07/23 07:26:12;;;;;;;86.03;76.57;;;;;;;;;;4305757;33;20106;-84
2021/07/23 07:28:41;;;;;;;91.35;77.80;;;;;;;;;;4310688;33;20088;-84
2021/07/23 07:31:13;;;;;;;106.85;79.80;;;;;;;;;;4318407;33;20099;-84
2021/07/23 07:33:42;;;;;;;99.40;75.70;;;;;;;;;;4310749;33;20109;-84
2021/07/23 07:36:17;;;;;;;108.70;81.18;;;;;;;;;;4308651;33;20088;-85
2021/07/23 07:38:46;;;;;;;109.10;84.47;;;;;;;;;;4313658;33;20131;-85
2021/07/23 07:41:18;;;;;;;101.10;74.15;;;;;;;;;;4315794;33;20052;-85
2021/07/23 07:43:47;;;;;;;98.85;75.50;;;;;;;;;;4317852;33;20123;-84
2021/07/23 07:46:15;;;;;;;98.62;77.53;;;;;;;;;;4317404;33;20442;-85
2021/07/23 07:48:44;;;;;;;112.03;80.30;;;;;;;;;;4325706;33;20098;-85
2021/07/23 07:51:13;;;;;;;105.82;78.78;;;;;;;;;;4318591;33;20048;-84
2021/07/23 07:53:42;;;;;;;131.73;93.70;;;;;;;;;;4322052;33;22385;-85
2021/07/23 07:56:12;;;;;;;100.80;89.03;;;;;;;;;;4299771;33;20068;-84
2021/07/23 07:58:41;;;;;;;104.97;90.95;;;;;;;;;;4299403;33;20077;-84
2021/07/23 08:01:10;;;;;;;110.88;95.68;;;;;;;;;;4330680;33;20111;-84
2021/07/23 08:03:39;;;;;;;130.80;100.87;;;;;;;;;;4304438;33;20057;-84
2021/07/23 08:06:10;;;;;;;134.98;102.25;;;;;;;;;;4317255;33;20431;-84
2021/07/23 08:08:39;;;;;;;143.07;104.53;;;;;;;;;;4309685;33;20158;-85
2021/07/23 08:11:08;;;;;;;141.10;106.55;;;;;;;;;;4316646;33;20074;-84
2021/07/23 08:13:36;;;;;;;173.00;122.22;;;;;;;;;;4322108;33;20215;-84
2021/07/23 08:16:05;;;;;;;185.40;128.87;;;;;;;;;;4321161;33;20110;-85
2021/07/23 08:18:34;;;;;;;190.90;130.98;;;;;;;;;;4318847;33;20099;-84
2021/07/23 08:21:04;;;;;;;203.35;135.85;;;;;;;;;;4305781;33;20806;-84
2021/07/23 08:23:33;;;;;;;180.80;111.70;;;;;;;;;;4302446;33;20088;-84
2021/07/23 08:26:04;;;;;;;143.02;93.68;;;;;;;;;;4316353;33;20151;-83
2021/07/23 08:28:33;;;;;;;139.68;92.88;;;;;;;;;;4315797;33;20072;-84
2021/07/23 08:31:02;;;;;;;135.30;92.88;;;;;;;;;;4320126;33;20309;-83
2021/07/23 08:33:31;;;;;;;168.40;110.63;;;;;;;;;;4319250;33;20072;-84
2021/07/23 08:36:01;;;;;;;124.65;106.10;;;;;;;;;;4315330;33;20154;-83
2021/07/23 08:38:29;;;;;;;123.43;109.68;;;;;;;;;;4312675;33;20107;-85
2021/07/23 08:40:58;;;;;;;126.95;110.28;;;;;;;;;;4311863;33;20117;-83
2021/07/23 08:43:26;;;;;;;125.72;108.37;;;;;;;;;;4323588;33;20124;-83
2021/07/23 08:45:56;;;;;;;127.18;111.43;;;;;;;;;;4317868;33;20130;-83
2021/07/23 08:48:24;;;;;;;177.05;121.35;;;;;;;;;;4314230;33;20071;-84
2021/07/23 08:50:53;;;;;;;186.70;123.10;;;;;;;;;;4302820;33;20235;-84
2021/07/23 08:53:22;;;;;;;186.68;120.43;;;;;;;;;;4304446;33;20552;-84
2021/07/23 08:55:50;;;;;;;193.02;121.95;;;;;;;;;;4311686;33;20044;-84
2021/07/23 08:58:20;;;;;;;178.10;112.12;;;;;;;;;;4316609;33;21019;-83
2021/07/23 09:00:48;;;;;;;172.43;107.55;;;;;;;;;;4317257;33;20477;-84
2021/07/23 09:03:17;;;;;;;162.45;117.90;;;;;;;;;;4320559;33;20096;-84
2021/07/23 09:05:46;;;;;;;164.95;110.80;;;;;;;;;;4319969;33;20114;-83
2021/07/23 09:08:15;;;;;;;155.07;116.15;;;;;;;;;;4318445;33;20114;-84
2021/07/23 09:10:45;;;;;;;162.30;120.80;;;;;;;;;;4317199;33;20476;-84
2021/07/23 09:13:24;;;;;;;150.65;118.40;;;;;;;;;;4318825;33;20816;-83
2021/07/23 09:15:53;;;;;;;163.07;115.20;;;;;;;;;;4318644;33;20064;-84
2021/07/23 09:18:41;;;;;;;150.62;113.82;;;;;;;;;;4315333;33;20146;-84
2021/07/23 09:21:10;;;;;;;155.95;114.57;;;;;;;;;;4315822;33;20064;-84
2021/07/23 09:23:39;;;;;;;153.02;114.10;;;;;;;;;;4316653;33;20099;-84
2021/07/23 09:26:08;;;;;;;144.13;128.77;;;;;;;;;;4317540;33;20056;-84
2021/07/23 09:28:38;;;;;;;203.98;141.00;;;;;;;;;;4318116;33;20091;-84
2021/07/23 09:31:08;;;;;;;188.65;132.30;;;;;;;;;;4317812;33;20060;-84
2021/07/23 09:33:39;;;;;;;139.05;120.40;;;;;;;;;;4309261;33;20459;-84
2021/07/23 09:36:08;;;;;;;123.35;109.80;;;;;;;;;;4300566;33;20063;-85
2021/07/23 09:38:43;;;;;;;95.35;85.25;;;;;;;;;;4322452;33;20051;-85
2021/07/23 09:41:24;;;;;;;60.85;54.30;;;;;;;;;;4320682;33;20138;-84
2021/07/23 09:44:11;;;;;;;49.33;34.42;;;;;;;;;;4320536;33;20048;-85
2021/07/23 09:46:44;;;;;;;20.88;17.67;;;;;;;;;;4312325;33;20124;-84
2021/07/23 09:49:23;;;;;;;23.15;18.20;;;;;;;;;;4322804;33;20059;-84
2021/07/23 09:51:52;;;;;;;23.25;12.60;;;;;;;;;;4317201;33;20154;-84
2021/07/23 09:54:21;;;;;;;17.40;4.45;;;;;;;;;;4322881;33;20522;-84
2021/07/23 09:56:50;;;;;;;16.48;4.10;;;;;;;;;;4317330;33;20112;-84
2021/07/23 09:59:39;;;;;;;12.95;3.78;;;;;;;;;;4306008;33;20435;-84
2021/07/23 10:02:13;;;;;;;11.32;2.95;;;;;;;;;;4304544;33;20106;-85
2021/07/23 10:04:57;;;;;;;14.98;3.72;;;;;;;;;;4315173;33;20044;-84
2021/07/23 10:07:27;;;;;;;16.05;4.10;;;;;;;;;;4319436;33;20052;-85
2021/07/23 10:09:57;;;;;;;12.45;3.15;;;;;;;;;;4315375;33;20045;-86
2021/07/23 10:12:26;;;;;;;16.27;4.22;;;;;;;;;;4314367;33;20095;-85
2021/07/23 10:14:55;;;;;;;9.93;3.40;;;;;;;;;;4322147;33;20683;-85
2021/07/23 10:17:25;;;;;;;14.73;3.40;;;;;;;;;;4319192;33;20092;-85
2021/07/23 10:19:57;;;;;;;9.98;3.10;;;;;;;;;;4307540;33;20162;-85
2021/07/23 10:22:26;;;;;;;18.95;4.25;;;;;;;;;;4317944;33;20407;-85
2021/07/23 10:24:55;;;;;;;13.77;3.83;;;;;;;;;;4317970;33;20492;-85
2021/07/23 10:27:24;;;;;;;12.55;3.72;;;;;;;;;;4306997;33;20088;-86
2021/07/23 10:29:54;;;;;;;12.50;3.47;;;;;;;;;;4295333;33;20208;-85
2021/07/23 10:32:25;;;;;;;9.55;3.08;;;;;;;;;;4320517;33;20052;-85
2021/07/23 10:34:59;;;;;;;14.80;4.10;;;;;;;;;;4318526;33;20040;-85
2021/07/23 10:37:30;;;;;;;19.02;3.42;;;;;;;;;;4317270;33;20045;-85
2021/07/23 10:40:08;;;;;;;10.05;3.70;;;;;;;;;;4324600;33;20060;-85
2021/07/23 10:42:39;;;;;;;12.15;3.53;;;;;;;;;;4319852;33;20141;-86
2021/07/23 10:45:08;;;;;;;12.63;3.15;;;;;;;;;;4315501;33;20040;-85
2021/07/23 10:47:38;;;;;;;12.02;3.75;;;;;;;;;;4319312;33;20082;-85
2021/07/23 10:50:08;;;;;;;14.70;3.00;;;;;;;;;;4315231;33;20053;-84
2021/07/23 10:52:37;;;;;;;13.48;4.05;;;;;;;;;;4321190;33;20114;-85
2021/07/23 10:55:13;;;;;;;17.73;3.92;;;;;;;;;;4318147;33;20086;-85
2021/07/23 10:57:42;;;;;;;14.00;3.75;;;;;;;;;;4316414;33;20094;-85
2021/07/23 11:00:11;;;;;;;14.20;3.85;;;;;;;;;;4319717;33;20147;-86
2021/07/23 11:02:43;;;;;;;10.57;3.25;;;;;;;;;;4320620;33;20194;-85
2021/07/23 11:05:17;;;;;;;26.83;5.28;;;;;;;;;;4318992;33;20073;-85
2021/07/23 11:07:45;;;;;;;20.25;4.20;;;;;;;;;;4306473;33;20045;-85
2021/07/23 11:10:18;;;;;;;23.42;4.03;;;;;;;;;;4321493;33;20091;-85
2021/07/23 11:12:47;;;;;;;11.27;3.75;;;;;;;;;;4321705;33;20119;-85
2021/07/23 11:15:16;;;;;;;19.67;3.97;;;;;;;;;;4318528;33;20060;-86
2021/07/23 11:17:54;;;;;;;11.38;3.15;;;;;;;;;;4316683;33;20052;-85
2021/07/23 11:20:28;;;;;;;13.00;3.70;;;;;;;;;;4313311;33;20130;-85
2021/07/23 11:22:57;;;;;;;11.25;3.12;;;;;;;;;;4314035;33;20084;-85
2021/07/23 11:25:28;;;;;;;14.35;3.33;;;;;;;;;;4315325;33;20083;-85
2021/07/23 11:27:59;;;;;;;12.88;3.55;;;;;;;;;;4315200;33;20127;-85
2021/07/23 11:30:32;;;;;;;17.52;4.05;;;;;;;;;;4300731;33;20131;-85
2021/07/23 11:33:02;;;;;;;10.30;3.65;;;;;;;;;;4316302;33;20044;-85
2021/07/23 11:35:32;;;;;;;9.57;2.58;;;;;;;;;;4316017;33;20140;-86
2021/07/23 11:38:10;;;;;;;10.77;3.58;;;;;;;;;;4314386;33;20840;-86
2021/07/23 11:40:38;;;;;;;11.75;3.22;;;;;;;;;;4316489;33;20151;-85
2021/07/23 11:43:18;;;;;;;12.52;3.65;;;;;;;;;;4315587;33;20071;-85
2021/07/23 11:45:47;;;;;;;22.87;4.07;;;;;;;;;;4313998;33;20051;-84
2021/07/23 11:48:18;;;;;;;10.57;3.05;;;;;;;;;;4314727;33;20052;-85
2021/07/23 11:50:57;;;;;;;16.40;3.72;;;;;;;;;;4312864;33;20277;-85
2021/07/23 11:53:26;;;;;;;19.50;3.67;;;;;;;;;;4316529;33;20052;-85
2021/07/23 11:55:55;;;;;;;13.07;3.47;;;;;;;;;;4314578;33;20044;-85
2021/07/23 11:58:23;;;;;;;19.42;4.00;;;;;;;;;;4315332;33;20179;-85
2021/07/23 12:00:52;;;;;;;17.12;3.90;;;;;;;;;;4316350;33;20068;-85
2021/07/23 12:03:22;;;;;;;15.40;4.15;;;;;;;;;;4318258;33;20171;-85
2021/07/23 12:05:51;;;;;;;14.63;3.62;;;;;;;;;;4313402;33;20098;-84
2021/07/23 12:08:22;;;;;;;13.77;3.25;;;;;;;;;;4317060;33;20083;-84
2021/07/23 12:10:54;;;;;;;11.05;3.12;;;;;;;;;;4314438;33;20096;-84
2021/07/23 12:13:23;;;;;;;13.55;3.80;;;;;;;;;;4302252;33;20056;-85
2021/07/23 12:15:54;;;;;;;16.40;3.83;;;;;;;;;;4316382;33;20532;-85
2021/07/23 12:18:25;;;;;;;12.35;3.30;;;;;;;;;;4317791;33;20408;-84
2021/07/23 12:21:07;;;;;;;20.42;3.80;;;;;;;;;;4313890;33;20044;-85
2021/07/23 12:23:36;;;;;;;13.40;3.65;;;;;;;;;;4319531;33;20530;-83
2021/07/23 12:26:04;;;;;;;10.38;3.05;;;;;;;;;;4310783;33;20686;-85
2021/07/23 12:28:35;;;;;;;15.45;3.47;;;;;;;;;;4316014;33;20076;-84
2021/07/23 12:31:04;;;;;;;24.67;3.80;;;;;;;;;;4316245;33;20636;-84
2021/07/23 12:33:32;;;;;;;19.00;4.03;;;;;;;;;;4318544;33;20450;-84
2021/07/23 12:36:20;;;;;;;24.15;4.03;;;;;;;;;;4317059;33;20118;-84
2021/07/23 12:39:04;;;;;;;10.95;2.33;;;;;;;;;;4308809;33;20064;-85
2021/07/23 12:41:40;;;;;;;32.97;4.82;;;;;;;;;;4313650;33;20103;-86
2021/07/23 12:44:10;;;;;;;13.60;3.30;;;;;;;;;;4319902;33;20052;-84
2021/07/23 12:46:39;;;;;;;13.55;3.80;;;;;;;;;;4320796;33;20048;-84
2021/07/23 12:49:28;;;;;;;21.37;4.32;;;;;;;;;;4319103;33;20045;-85
2021/07/23 12:52:01;;;;;;;11.88;3.33;;;;;;;;;;4315334;33;20426;-85
2021/07/23 12:54:40;;;;;;;28.43;4.57;;;;;;;;;;4312976;33;20135;-84
2021/07/23 12:57:27;;;;;;;15.20;4.40;;;;;;;;;;4305531;33;20497;-85
2021/07/23 13:00:17;;;;;;;13.52;3.20;;;;;;;;;;4317152;33;20070;-85
2021/07/23 13:02:45;;;;;;;24.60;4.40;;;;;;;;;;4315836;33;20806;-84
2021/07/23 13:05:14;;;;;;;14.40;3.37;;;;;;;;;;4304132;33;20116;-85
2021/07/23 13:07:43;;;;;;;22.00;3.97;;;;;;;;;;4314884;33;20083;-85
2021/07/23 13:10:17;;;;;;;16.73;3.08;;;;;;;;;;4318929;33;20111;-86
2021/07/23 13:12:46;;;;;;;17.17;3.08;;;;;;;;;;4304347;33;20077;-85
2021/07/23 13:15:15;;;;;;;16.58;2.97;;;;;;;;;;4312935;33;20123;-84
2021/07/23 13:17:44;;;;;;;22.15;4.53;;;;;;;;;;4315715;33;20108;-84
2021/07/23 13:20:12;;;;;;;20.52;3.83;;;;;;;;;;4317160;33;20104;-86
2021/07/23 13:22:41;;;;;;;18.02;3.75;;;;;;;;;;4318010;33;20110;-84
2021/07/23 13:25:10;;;;;;;19.00;4.28;;;;;;;;;;4317183;33;20497;-84
2021/07/23 13:27:40;;;;;;;12.55;3.20;;;;;;;;;;4316409;33;20064;-84
2021/07/23 13:30:08;;;;;;;23.12;4.97;;;;;;;;;;4314747;33;20427;-85
2021/07/23 13:32:37;;;;;;;11.43;3.05;;;;;;;;;;4313134;33;20126;-85
2021/07/23 13:35:06;;;;;;;16.77;3.45;;;;;;;;;;4319575;33;20075;-84
2021/07/23 13:37:35;;;;;;;11.98;3.03;;;;;;;;;;4315716;33;20044;-84
2021/07/23 13:40:09;;;;;;;10.70;3.08;;;;;;;;;;4314088;33;20048;-84
2021/07/23 13:42:44;;;;;;;14.10;3.75;;;;;;;;;;4315272;33;20060;-84
2021/07/23 13:45:14;;;;;;;23.20;4.35;;;;;;;;;;4314735;33;20111;-84
2021/07/23 13:47:42;;;;;;;13.85;4.50;;;;;;;;;;4314797;33;20111;-85
2021/07/23 13:50:11;;;;;;;11.35;3.33;;;;;;;;;;4315773;33;20127;-85
2021/07/23 13:52:40;;;;;;;14.52;3.53;;;;;;;;;;4316226;33;20423;-85
2021/07/23 13:55:09;;;;;;;15.20;3.80;;;;;;;;;;4316231;33;20040;-85
2021/07/23 13:57:38;;;;;;;12.90;3.28;;;;;;;;;;4315553;33;20434;-85
2021/07/23 14:00:08;;;;;;;12.45;3.30;;;;;;;;;;4317406;33;20075;-84
2021/07/23 14:02:38;;;;;;;16.10;4.12;;;;;;;;;;4315585;33;20059;-84
2021/07/23 14:05:08;;;;;;;15.68;4.37;;;;;;;;;;4314740;33;20135;-84
2021/07/23 14:07:40;;;;;;;17.15;4.00;;;;;;;;;;4313268;33;20111;-85
2021/07/23 14:10:09;;;;;;;18.87;3.75;;;;;;;;;;4315912;33;20052;-85
2021/07/23 14:12:37;;;;;;;17.80;3.78;;;;;;;;;;4309672;33;20174;-85
2021/07/23 14:15:06;;;;;;;16.75;3.90;;;;;;;;;;4313140;33;20139;-84
2021/07/23 14:17:35;;;;;;;14.35;3.78;;;;;;;;;;4310703;33;20151;-84
2021/07/23 14:20:05;;;;;;;20.83;4.30;;;;;;;;;;4315211;33;20111;-85
2021/07/23 14:22:33;;;;;;;14.55;4.05;;;;;;;;;;4304580;33;20048;-85
2021/07/23 14:25:02;;;;;;;15.85;3.75;;;;;;;;;;4317179;33;20214;-84
2021/07/23 14:27:31;;;;;;;12.90;3.10;;;;;;;;;;4317096;33;20044;-84
2021/07/23 14:29:59;;;;;;;14.55;3.53;;;;;;;;;;4318057;33;20162;-84
2021/07/23 14:32:29;;;;;;;12.23;3.10;;;;;;;;;;4314936;33;20515;-84
2021/07/23 14:34:57;;;;;;;9.13;2.75;;;;;;;;;;4314382;33;20060;-85
2021/07/23 14:37:25;;;;;;;13.02;3.20;;;;;;;;;;4320994;33;20553;-84
2021/07/23 14:39:54;;;;;;;16.08;4.12;;;;;;;;;;4323780;33;20113;-85
2021/07/23 14:42:22;;;;;;;17.20;3.87;;;;;;;;;;4321299;33;20095;-85
2021/07/23 14:44:54;;;;;;;21.55;4.47;;;;;;;;;;4318985;33;20627;-84
2021/07/23 14:47:23;;;;;;;26.62;4.62;;;;;;;;;;4316898;33;20636;-85
2021/07/23 14:49:51;;;;;;;19.92;4.62;;;;;;;;;;4320333;33;20092;-84
2021/07/23 14:52:19;;;;;;;17.27;4.65;;;;;;;;;;4321948;33;20044;-84
2021/07/23 14:54:48;;;;;;;15.73;4.37;;;;;;;;;;4317775;33;20048;-85
2021/07/23 14:57:16;;;;;;;10.63;3.33;;;;;;;;;;4318236;33;20498;-85
2021/07/23 14:59:45;;;;;;;16.80;3.80;;;;;;;;;;4321276;33;20545;-85
2021/07/23 15:02:14;;;;;;;15.50;4.30;;;;;;;;;;4316766;33;20106;-84
2021/07/23 15:04:43;;;;;;;11.57;3.42;;;;;;;;;;4316440;33;20573;-84
2021/07/23 15:07:11;;;;;;;15.95;3.80;;;;;;;;;;4315249;33;20183;-85
2021/07/23 15:09:40;;;;;;;12.35;2.85;;;;;;;;;;4317526;33;20099;-84
2021/07/23 15:12:08;;;;;;;22.17;6.15;;;;;;;;;;4320737;33;20643;-84
2021/07/23 15:14:37;;;;;;;11.23;4.10;;;;;;;;;;4319340;33;20078;-85
2021/07/23 15:17:06;;;;;;;14.10;3.58;;;;;;;;;;4319719;33;20137;-84
2021/07/23 15:19:35;;;;;;;14.80;3.65;;;;;;;;;;4309162;33;20446;-84
2021/07/23 15:22:04;;;;;;;23.38;4.95;;;;;;;;;;4317722;33;20110;-84
2021/07/23 15:24:33;;;;;;;14.52;4.22;;;;;;;;;;4322136;33;20071;-85
2021/07/23 15:27:03;;;;;;;18.30;5.40;;;;;;;;;;4309349;33;20066;-84
2021/07/23 15:29:32;;;;;;;16.37;4.18;;;;;;;;;;4319097;33;20056;-84
2021/07/23 15:32:01;;;;;;;17.50;4.20;;;;;;;;;;4322498;33;20138;-84
2021/07/23 15:34:31;;;;;;;16.25;3.97;;;;;;;;;;4321141;33;20208;-84
2021/07/23 15:37:00;;;;;;;15.65;5.25;;;;;;;;;;4321437;33;22132;-84
2021/07/23 15:39:28;;;;;;;14.07;4.32;;;;;;;;;;4313173;33;20537;-84
2021/07/23 15:41:56;;;;;;;14.23;4.80;;;;;;;;;;4318734;33;20513;-84
2021/07/23 15:44:25;;;;;;;20.02;6.07;;;;;;;;;;4321699;33;20639;-84
2021/07/23 15:47:03;;;;;;;17.45;5.35;;;;;;;;;;4324128;33;20079;-84
2021/07/23 15:49:32;;;;;;;21.77;7.72;;;;;;;;;;4318057;33;20044;-84
2021/07/23 15:52:01;;;;;;;18.10;6.20;;;;;;;;;;4319902;33;20068;-83
2021/07/23 15:54:29;;;;;;;17.50;5.25;;;;;;;;;;4322551;33;20099;-84